sensor_id;sensor_type;location;lat;lon;timestamp;P1;durP1;ratioP1;P2;durP2;ratioP2
1328;SDS011;658;48.820;9.354;2023-04-01T00:02:51;0.70;;;0.40;;
1328;SDS011;658;48.820;9.354;2023-04-01T00:06:52;1.20;;;0.60;;
1328;SDS011;658;48.820;9.354;2023-04-01T00:10:53;1.67;;;0.50;;
1328;SDS011;658;48.820;9.354;2023-04-01T00:14:54;0.50;;;0.40;;
1328;SDS011;658;48.820;9.354;2023-04-01T00:18:55;0.60;;;0.50;;
1328;SDS011;658;48.820;9.354;2023-04-01T00:22:55;0.83;;;0.40;;
1328;SDS011;658;48.820;9.354;2023-04-01T00:26:56;0.30;;;0.30;;
1328;SDS011;658;48.820;9.354;2023-04-01T00:30:56;0.60;;;0.40;;
1328;SDS011;658;48.820;9.354;2023-04-01T00:34:57;0.60;;;0.40;;
1328;SDS011;658;48.820;9.354;2023-04-01T00:39:01;0.50;;;0.50;;
1328;SDS011;658;48.820;9.354;2023-04-01T00:43:09;1.30;;;0.50;;
1328;SDS011;658;48.820;9.354;2023-04-01T00:47:14;0.60;;;0.60;;
1328;SDS011;658;48.820;9.354;2023-04-01T00:51:33;0.50;;;0.40;;
1328;SDS011;658;48.820;9.354;2023-04-01T00:55:37;0.63;;;0.47;;
1328;SDS011;658;48.820;9.354;2023-04-01T00:59:43;0.50;;;0.40;;
1328;SDS011;658;48.820;9.354;2023-04-01T01:03:49;0.73;;;0.40;;
1328;SDS011;658;48.820;9.354;2023-04-01T01:07:57;0.97;;;0.50;;
1328;SDS011;658;48.820;9.354;2023-04-01T01:12:10;0.40;;;0.40;;
1328;SDS011;658;48.820;9.354;2023-04-01T01:16:26;0.60;;;0.50;;
1328;SDS011;658;48.820;9.354;2023-04-01T01:20:35;0.30;;;0.30;;
1328;SDS011;658;48.820;9.354;2023-04-01T01:38:08;0.60;;;0.50;;
1328;SDS011;658;48.820;9.354;2023-04-01T01:42:13;0.50;;;0.50;;
1328;SDS011;658;48.820;9.354;2023-04-01T01:46:21;0.40;;;0.37;;
1328;SDS011;658;48.820;9.354;2023-04-01T01:50:24;0.50;;;0.40;;
1328;SDS011;658;48.820;9.354;2023-04-01T01:54:26;0.50;;;0.40;;
1328;SDS011;658;48.820;9.354;2023-04-01T01:58:28;0.60;;;0.30;;
1328;SDS011;658;48.820;9.354;2023-04-01T02:02:32;0.50;;;0.40;;
1328;SDS011;658;48.820;9.354;2023-04-01T02:06:34;0.50;;;0.40;;
1328;SDS011;658;48.820;9.354;2023-04-01T02:10:42;0.50;;;0.40;;
1328;SDS011;658;48.820;9.354;2023-04-01T02:18:50;1.90;;;0.40;;
1328;SDS011;658;48.820;9.354;2023-04-01T02:22:57;0.60;;;0.40;;
1328;SDS011;658;48.820;9.354;2023-04-01T02:26:59;0.57;;;0.40;;
1328;SDS011;658;48.820;9.354;2023-04-01T02:31:00;0.87;;;0.50;;
1328;SDS011;658;48.820;9.354;2023-04-01T02:35:02;0.40;;;0.30;;
1328;SDS011;658;48.820;9.354;2023-04-01T02:39:05;0.43;;;0.40;;
1328;SDS011;658;48.820;9.354;2023-04-01T02:43:07;0.70;;;0.30;;
1328;SDS011;658;48.820;9.354;2023-04-01T02:47:08;0.50;;;0.40;;
1328;SDS011;658;48.820;9.354;2023-04-01T02:51:08;0.30;;;0.30;;
1328;SDS011;658;48.820;9.354;2023-04-01T02:55:09;0.90;;;0.43;;
1328;SDS011;658;48.820;9.354;2023-04-01T02:59:10;0.40;;;0.40;;
1328;SDS011;658;48.820;9.354;2023-04-01T03:03:10;0.40;;;0.40;;
1328;SDS011;658;48.820;9.354;2023-04-01T03:07:12;0.40;;;0.33;;
1328;SDS011;658;48.820;9.354;2023-04-01T03:11:13;0.50;;;0.50;;
1328;SDS011;658;48.820;9.354;2023-04-01T03:15:14;0.60;;;0.50;;
1328;SDS011;658;48.820;9.354;2023-04-01T03:19:15;0.40;;;0.37;;
1328;SDS011;658;48.820;9.354;2023-04-01T03:23:16;0.80;;;0.40;;
1328;SDS011;658;48.820;9.354;2023-04-01T03:27:19;0.40;;;0.40;;
1328;SDS011;658;48.820;9.354;2023-04-01T03:31:22;0.60;;;0.30;;
1328;SDS011;658;48.820;9.354;2023-04-01T03:35:22;0.50;;;0.37;;
1328;SDS011;658;48.820;9.354;2023-04-01T03:39:23;0.40;;;0.40;;
1328;SDS011;658;48.820;9.354;2023-04-01T03:43:25;0.70;;;0.37;;
1328;SDS011;658;48.820;9.354;2023-04-01T03:47:26;0.40;;;0.30;;
1328;SDS011;658;48.820;9.354;2023-04-01T03:51:29;1.20;;;0.50;;
1328;SDS011;658;48.820;9.354;2023-04-01T03:55:30;0.57;;;0.40;;
1328;SDS011;658;48.820;9.354;2023-04-01T03:59:30;0.30;;;0.30;;
1328;SDS011;658;48.820;9.354;2023-04-01T04:03:31;0.40;;;0.30;;
1328;SDS011;658;48.820;9.354;2023-04-01T04:07:34;0.60;;;0.40;;
1328;SDS011;658;48.820;9.354;2023-04-01T04:11:35;0.50;;;0.40;;
1328;SDS011;658;48.820;9.354;2023-04-01T04:15:35;0.70;;;0.40;;
1328;SDS011;658;48.820;9.354;2023-04-01T04:19:36;0.70;;;0.30;;
1328;SDS011;658;48.820;9.354;2023-04-01T04:23:36;0.50;;;0.37;;
1328;SDS011;658;48.820;9.354;2023-04-01T04:27:37;1.00;;;0.40;;
1328;SDS011;658;48.820;9.354;2023-04-01T04:31:40;0.30;;;0.30;;
1328;SDS011;658;48.820;9.354;2023-04-01T04:35:40;0.57;;;0.37;;
1328;SDS011;658;48.820;9.354;2023-04-01T04:39:41;0.40;;;0.30;;
1328;SDS011;658;48.820;9.354;2023-04-01T04:43:42;0.40;;;0.40;;
1328;SDS011;658;48.820;9.354;2023-04-01T04:47:48;0.80;;;0.30;;
1328;SDS011;658;48.820;9.354;2023-04-01T04:51:48;0.77;;;0.40;;
1328;SDS011;658;48.820;9.354;2023-04-01T04:55:49;0.40;;;0.30;;
1328;SDS011;658;48.820;9.354;2023-04-01T04:59:50;0.50;;;0.40;;
1328;SDS011;658;48.820;9.354;2023-04-01T05:03:53;0.40;;;0.40;;
1328;SDS011;658;48.820;9.354;2023-04-01T05:07:54;0.40;;;0.40;;
1328;SDS011;658;48.820;9.354;2023-04-01T05:11:54;0.50;;;0.30;;
1328;SDS011;658;48.820;9.354;2023-04-01T05:15:55;0.30;;;0.30;;
1328;SDS011;658;48.820;9.354;2023-04-01T05:19:56;0.30;;;0.30;;
1328;SDS011;658;48.820;9.354;2023-04-01T05:23:56;0.40;;;0.30;;
1328;SDS011;658;48.820;9.354;2023-04-01T05:27:57;0.50;;;0.40;;
1328;SDS011;658;48.820;9.354;2023-04-01T05:32:00;0.40;;;0.40;;
1328;SDS011;658;48.820;9.354;2023-04-01T05:40:14;0.53;;;0.30;;
1328;SDS011;658;48.820;9.354;2023-04-01T05:44:15;0.50;;;0.30;;
1328;SDS011;658;48.820;9.354;2023-04-01T05:48:20;0.30;;;0.30;;
1328;SDS011;658;48.820;9.354;2023-04-01T05:52:20;0.40;;;0.30;;
1328;SDS011;658;48.820;9.354;2023-04-01T05:56:21;0.40;;;0.40;;
1328;SDS011;658;48.820;9.354;2023-04-01T06:00:21;0.40;;;0.40;;
1328;SDS011;658;48.820;9.354;2023-04-01T06:04:22;0.40;;;0.30;;
1328;SDS011;658;48.820;9.354;2023-04-01T06:08:24;0.40;;;0.30;;
1328;SDS011;658;48.820;9.354;2023-04-01T06:12:34;0.40;;;0.40;;
1328;SDS011;658;48.820;9.354;2023-04-01T06:25:40;0.40;;;0.40;;
1328;SDS011;658;48.820;9.354;2023-04-01T06:38:05;0.70;;;0.33;;
1328;SDS011;658;48.820;9.354;2023-04-01T06:42:24;0.40;;;0.30;;
1328;SDS011;658;48.820;9.354;2023-04-01T06:46:43;0.30;;;0.30;;
1328;SDS011;658;48.820;9.354;2023-04-01T06:50:56;0.50;;;0.30;;
1328;SDS011;658;48.820;9.354;2023-04-01T06:59:42;0.40;;;0.30;;
1328;SDS011;658;48.820;9.354;2023-04-01T07:03:50;0.57;;;0.40;;
1328;SDS011;658;48.820;9.354;2023-04-01T07:07:57;0.70;;;0.40;;
1328;SDS011;658;48.820;9.354;2023-04-01T07:12:02;0.40;;;0.40;;
1328;SDS011;658;48.820;9.354;2023-04-01T07:20:26;0.30;;;0.30;;
1328;SDS011;658;48.820;9.354;2023-04-01T07:24:34;0.30;;;0.30;;
1328;SDS011;658;48.820;9.354;2023-04-01T07:28:37;0.53;;;0.53;;
1328;SDS011;658;48.820;9.354;2023-04-01T07:41:15;0.40;;;0.30;;
1328;SDS011;658;48.820;9.354;2023-04-01T07:45:30;0.40;;;0.40;;
1328;SDS011;658;48.820;9.354;2023-04-01T08:07:40;0.50;;;0.40;;
1328;SDS011;658;48.820;9.354;2023-04-01T08:16:23;2.77;;;0.50;;
1328;SDS011;658;48.820;9.354;2023-04-01T08:20:34;0.60;;;0.47;;
1328;SDS011;658;48.820;9.354;2023-04-01T08:24:43;0.50;;;0.40;;
1328;SDS011;658;48.820;9.354;2023-04-01T08:33:09;1.13;;;0.40;;
1328;SDS011;658;48.820;9.354;2023-04-01T08:37:18;0.93;;;0.40;;
1328;SDS011;658;48.820;9.354;2023-04-01T08:50:36;0.60;;;0.40;;
1328;SDS011;658;48.820;9.354;2023-04-01T08:54:46;0.50;;;0.40;;
1328;SDS011;658;48.820;9.354;2023-04-01T08:59:16;0.50;;;0.40;;
1328;SDS011;658;48.820;9.354;2023-04-01T09:12:32;0.40;;;0.40;;
1328;SDS011;658;48.820;9.354;2023-04-01T09:16:43;0.40;;;0.40;;
1328;SDS011;658;48.820;9.354;2023-04-01T09:21:04;0.80;;;0.50;;
1328;SDS011;658;48.820;9.354;2023-04-01T09:38:23;1.13;;;0.47;;
1328;SDS011;658;48.820;9.354;2023-04-01T09:42:42;1.13;;;0.40;;
1328;SDS011;658;48.820;9.354;2023-04-01T10:27:02;1.70;;;0.60;;
1328;SDS011;658;48.820;9.354;2023-04-01T10:31:33;3.10;;;0.50;;
1328;SDS011;658;48.820;9.354;2023-04-01T10:40:13;3.03;;;0.97;;
1328;SDS011;658;48.820;9.354;2023-04-01T11:20:05;1.13;;;0.43;;
1328;SDS011;658;48.820;9.354;2023-04-01T11:24:51;0.90;;;0.50;;
1328;SDS011;658;48.820;9.354;2023-04-01T11:33:54;1.23;;;0.60;;
1328;SDS011;658;48.820;9.354;2023-04-01T12:08:14;1.00;;;0.70;;
1328;SDS011;658;48.820;9.354;2023-04-01T12:20:57;1.43;;;0.60;;
1328;SDS011;658;48.820;9.354;2023-04-01T12:29:49;0.90;;;0.50;;
1328;SDS011;658;48.820;9.354;2023-04-01T12:34:15;1.37;;;0.70;;
1328;SDS011;658;48.820;9.354;2023-04-01T12:38:43;1.27;;;0.87;;
1328;SDS011;658;48.820;9.354;2023-04-01T12:56:17;22.50;;;20.10;;
1328;SDS011;658;48.820;9.354;2023-04-01T13:00:52;22.87;;;20.57;;
1328;SDS011;658;48.820;9.354;2023-04-01T13:21:23;34.83;;;30.70;;
1328;SDS011;658;48.820;9.354;2023-04-01T13:25:42;33.00;;;29.60;;
1328;SDS011;658;48.820;9.354;2023-04-01T13:43:02;35.07;;;29.10;;
1328;SDS011;658;48.820;9.354;2023-04-01T14:08:08;28.73;;;25.73;;
1328;SDS011;658;48.820;9.354;2023-04-01T14:20:44;27.27;;;22.60;;
1328;SDS011;658;48.820;9.354;2023-04-01T14:29:49;23.23;;;20.57;;
1328;SDS011;658;48.820;9.354;2023-04-01T14:34:12;23.67;;;19.73;;
1328;SDS011;658;48.820;9.354;2023-04-01T14:51:17;22.20;;;18.20;;
1328;SDS011;658;48.820;9.354;2023-04-01T14:59:47;17.67;;;14.80;;
1328;SDS011;658;48.820;9.354;2023-04-01T15:08:23;17.27;;;14.27;;
1328;SDS011;658;48.820;9.354;2023-04-01T15:21:32;16.40;;;13.73;;
1328;SDS011;658;48.820;9.354;2023-04-01T15:43:57;12.87;;;11.33;;
1328;SDS011;658;48.820;9.354;2023-04-01T16:06:07;11.77;;;8.77;;
1328;SDS011;658;48.820;9.354;2023-04-01T16:18:57;9.10;;;8.03;;
1328;SDS011;658;48.820;9.354;2023-04-01T16:28:24;9.13;;;7.40;;
1328;SDS011;658;48.820;9.354;2023-04-01T16:36:42;7.60;;;6.77;;
1328;SDS011;658;48.820;9.354;2023-04-01T16:40:47;9.77;;;6.67;;
1328;SDS011;658;48.820;9.354;2023-04-01T16:53:17;9.63;;;6.03;;
1328;SDS011;658;48.820;9.354;2023-04-01T17:14:33;7.50;;;5.00;;
1328;SDS011;658;48.820;9.354;2023-04-01T17:40:49;4.67;;;4.23;;
1328;SDS011;658;48.820;9.354;2023-04-01T17:45:26;5.87;;;4.43;;
1328;SDS011;658;48.820;9.354;2023-04-01T17:49:42;5.00;;;3.90;;
1328;SDS011;658;48.820;9.354;2023-04-01T17:58:46;5.63;;;4.43;;
1328;SDS011;658;48.820;9.354;2023-04-01T18:03:12;5.00;;;4.50;;
1328;SDS011;658;48.820;9.354;2023-04-01T18:16:26;3.90;;;3.50;;
1328;SDS011;658;48.820;9.354;2023-04-01T18:24:56;5.60;;;3.00;;
1328;SDS011;658;48.820;9.354;2023-04-01T18:33:32;3.30;;;2.77;;
1328;SDS011;658;48.820;9.354;2023-04-01T18:37:39;5.37;;;2.70;;
1328;SDS011;658;48.820;9.354;2023-04-01T18:41:51;3.43;;;2.53;;
1328;SDS011;658;48.820;9.354;2023-04-01T18:46:01;4.67;;;2.27;;
1328;SDS011;658;48.820;9.354;2023-04-01T18:54:32;2.90;;;2.50;;
1328;SDS011;658;48.820;9.354;2023-04-01T19:08:11;2.60;;;2.40;;
1328;SDS011;658;48.820;9.354;2023-04-01T19:11:55;3.17;;;2.20;;
1328;SDS011;658;48.820;9.354;2023-04-01T19:16:22;3.40;;;2.67;;
1328;SDS011;658;48.820;9.354;2023-04-01T19:24:41;3.90;;;2.20;;
1328;SDS011;658;48.820;9.354;2023-04-01T19:33:25;2.50;;;1.73;;
1328;SDS011;658;48.820;9.354;2023-04-01T19:37:31;3.00;;;2.13;;
1328;SDS011;658;48.820;9.354;2023-04-01T19:41:40;2.97;;;2.00;;
1328;SDS011;658;48.820;9.354;2023-04-01T19:46:19;1.87;;;1.53;;
1328;SDS011;658;48.820;9.354;2023-04-01T19:50:45;3.03;;;2.60;;
1328;SDS011;658;48.820;9.354;2023-04-01T19:59:41;4.37;;;1.93;;
1328;SDS011;658;48.820;9.354;2023-04-01T20:03:55;3.73;;;1.93;;
1328;SDS011;658;48.820;9.354;2023-04-01T20:08:06;2.80;;;2.10;;
1328;SDS011;658;48.820;9.354;2023-04-01T20:12:24;3.33;;;1.80;;
1328;SDS011;658;48.820;9.354;2023-04-01T20:16:46;2.50;;;1.80;;
1328;SDS011;658;48.820;9.354;2023-04-01T20:20:54;4.20;;;2.20;;
1328;SDS011;658;48.820;9.354;2023-04-01T20:25:23;2.50;;;1.63;;
1328;SDS011;658;48.820;9.354;2023-04-01T20:37:48;1.60;;;1.50;;
1328;SDS011;658;48.820;9.354;2023-04-01T20:42:22;2.33;;;1.70;;
1328;SDS011;658;48.820;9.354;2023-04-01T20:46:43;4.20;;;1.60;;
1328;SDS011;658;48.820;9.354;2023-04-01T20:50:50;2.17;;;1.43;;
1328;SDS011;658;48.820;9.354;2023-04-01T20:55:13;1.13;;;1.03;;
1328;SDS011;658;48.820;9.354;2023-04-01T20:59:36;1.90;;;1.40;;
1328;SDS011;658;48.820;9.354;2023-04-01T21:03:45;1.83;;;1.30;;
1328;SDS011;658;48.820;9.354;2023-04-01T21:17:08;2.40;;;1.37;;
1328;SDS011;658;48.820;9.354;2023-04-01T21:21:29;1.00;;;0.90;;
1328;SDS011;658;48.820;9.354;2023-04-01T21:25:43;2.60;;;1.60;;
1328;SDS011;658;48.820;9.354;2023-04-01T21:29:51;3.80;;;1.17;;
1328;SDS011;658;48.820;9.354;2023-04-01T22:04:34;1.47;;;1.37;;
1328;SDS011;658;48.820;9.354;2023-04-01T22:13:47;1.43;;;0.90;;
1328;SDS011;658;48.820;9.354;2023-04-01T22:22:14;1.67;;;1.17;;
1328;SDS011;658;48.820;9.354;2023-04-01T22:30:42;2.60;;;1.30;;
1328;SDS011;658;48.820;9.354;2023-04-01T22:35:04;3.20;;;1.03;;
1328;SDS011;658;48.820;9.354;2023-04-01T22:43:38;5.33;;;1.10;;
1328;SDS011;658;48.820;9.354;2023-04-01T22:56:07;0.83;;;0.83;;
1328;SDS011;658;48.820;9.354;2023-04-01T23:00:17;3.40;;;1.03;;
1328;SDS011;658;48.820;9.354;2023-04-01T23:04:33;1.20;;;1.10;;
1328;SDS011;658;48.820;9.354;2023-04-01T23:12:45;1.13;;;1.03;;
1328;SDS011;658;48.820;9.354;2023-04-01T23:16:50;0.80;;;0.73;;
1328;SDS011;658;48.820;9.354;2023-04-01T23:29:35;1.00;;;0.70;;
1328;SDS011;658;48.820;9.354;2023-04-01T23:33:38;1.77;;;0.93;;
1328;SDS011;658;48.820;9.354;2023-04-01T23:37:38;1.17;;;0.90;;
1328;SDS011;658;48.820;9.354;2023-04-01T23:41:39;1.97;;;1.10;;
1328;SDS011;658;48.820;9.354;2023-04-01T23:45:43;2.27;;;0.83;;
1328;SDS011;658;48.820;9.354;2023-04-01T23:49:45;1.73;;;0.90;;
1328;SDS011;658;48.820;9.354;2023-04-01T23:54:04;1.90;;;0.90;;
